createdAt,value
2022-12-08T00:01:16.081Z,5.79
2022-12-08T00:02:37.331Z,5.81
2022-12-08T00:04:04.377Z,5.80
2022-12-08T00:05:43.802Z,5.83
2022-12-08T00:07:23.242Z,5.83
2022-12-08T00:09:02.674Z,5.82
2022-12-08T00:10:48.013Z,5.79
2022-12-08T00:12:16.544Z,5.79
2022-12-08T00:13:37.678Z,5.77
2022-12-08T00:14:58.924Z,5.76
2022-12-08T00:16:20.140Z,5.77
2022-12-08T00:17:41.246Z,5.81
2022-12-08T00:19:02.381Z,5.81
2022-12-08T00:20:23.789Z,5.82
2022-12-08T00:21:44.996Z,5.83
2022-12-08T00:23:05.910Z,5.83
2022-12-08T00:24:31.942Z,5.85
2022-12-08T00:25:53.166Z,5.81
2022-12-08T00:27:16.244Z,5.77
2022-12-08T00:28:37.602Z,5.84
2022-12-08T00:29:58.562Z,5.81
2022-12-08T00:31:19.996Z,5.83
2022-12-08T00:32:41.257Z,5.83
2022-12-08T00:34:02.506Z,5.84
2022-12-08T00:35:23.362Z,5.87
2022-12-08T00:36:45.038Z,5.87
2022-12-08T00:38:06.094Z,5.87
2022-12-08T00:39:27.336Z,5.89
2022-12-08T00:40:48.657Z,5.87
2022-12-08T00:42:12.556Z,5.89
2022-12-08T00:43:33.537Z,5.91
2022-12-08T00:44:54.731Z,5.89
2022-12-08T00:46:15.872Z,5.95
2022-12-08T00:47:36.984Z,5.99
2022-12-08T00:48:58.167Z,5.99
2022-12-08T00:50:19.342Z,5.96
2022-12-08T00:51:40.606Z,5.98
2022-12-08T00:53:01.856Z,5.96
2022-12-08T00:54:23.395Z,5.95
2022-12-08T00:55:44.577Z,5.94
2022-12-08T00:57:05.719Z,5.95
2022-12-08T00:58:27.110Z,5.93
2022-12-08T00:59:47.982Z,5.93
2022-12-08T01:01:13.504Z,5.92
2022-12-08T01:02:34.786Z,5.96
2022-12-08T01:03:55.705Z,5.93
2022-12-08T01:05:16.855Z,5.96
2022-12-08T01:06:39.078Z,5.96
2022-12-08T01:08:00.227Z,5.93
2022-12-08T01:09:21.763Z,5.95
2022-12-08T01:10:42.709Z,5.90
2022-12-08T01:12:04.183Z,5.83
2022-12-08T01:13:25.399Z,5.78
2022-12-08T01:14:46.785Z,5.73
2022-12-08T01:16:08.507Z,5.74
2022-12-08T01:17:29.674Z,5.77
2022-12-08T01:18:51.360Z,5.76
2022-12-08T01:20:12.489Z,5.75
2022-12-08T01:21:33.543Z,5.75
2022-12-08T01:22:54.685Z,5.74
2022-12-08T01:24:18.360Z,5.74
2022-12-08T01:25:39.537Z,5.74
2022-12-08T01:27:00.429Z,5.75
2022-12-08T01:28:21.743Z,5.77
2022-12-08T01:29:42.731Z,5.80
2022-12-08T01:31:04.215Z,5.77
2022-12-08T01:32:25.135Z,5.78
2022-12-08T01:33:47.130Z,5.79
2022-12-08T01:35:08.457Z,5.77
2022-12-08T01:36:32.298Z,5.69
2022-12-08T01:37:52.919Z,5.62
2022-12-08T01:39:16.984Z,5.66
2022-12-08T01:40:37.806Z,5.56
2022-12-08T01:41:59.061Z,5.51
2022-12-08T01:43:20.940Z,5.54
2022-12-08T01:44:42.292Z,5.54
2022-12-08T01:46:03.778Z,5.53
2022-12-08T01:47:29.324Z,5.52
2022-12-08T01:48:54.519Z,5.47
2022-12-08T01:50:18.222Z,5.44
2022-12-08T01:51:47.993Z,5.45
2022-12-08T01:53:11.010Z,5.48
2022-12-08T01:54:42.111Z,5.47
2022-12-08T01:56:10.740Z,5.45
2022-12-08T01:57:41.018Z,5.48
2022-12-08T01:59:03.368Z,5.46
2022-12-08T02:00:24.858Z,5.43
2022-12-08T02:01:45.860Z,5.46
2022-12-08T02:03:12.411Z,5.43
2022-12-08T02:04:33.437Z,5.46
2022-12-08T02:05:55.074Z,5.45
2022-12-08T02:07:16.733Z,5.47
2022-12-08T02:08:40.545Z,5.50
2022-12-08T02:10:03.405Z,5.48
2022-12-08T02:11:24.434Z,5.50
2022-12-08T02:12:47.309Z,5.49
2022-12-08T02:14:10.347Z,5.52
2022-12-08T02:15:56.246Z,5.52
2022-12-08T02:17:40.375Z,5.54
2022-12-08T02:21:14.170Z,5.52
2022-12-08T02:22:47.292Z,5.50
2022-12-08T02:24:30.749Z,5.53
2022-12-08T02:26:33.587Z,5.51
2022-12-08T02:28:37.257Z,5.51
2022-12-08T02:30:07.740Z,5.48
2022-12-08T02:31:58.615Z,5.45
2022-12-08T02:33:47.146Z,5.50
2022-12-08T02:35:39.092Z,5.46
2022-12-08T02:37:15.240Z,5.42
2022-12-08T02:38:50.388Z,5.30
2022-12-08T02:40:14.486Z,5.25
2022-12-08T02:41:59.506Z,5.17
2022-12-08T02:43:35.307Z,5.09
2022-12-08T02:45:24.780Z,5.05
2022-12-08T02:46:58.194Z,5.01
2022-12-08T02:48:19.536Z,4.96
2022-12-08T02:49:40.740Z,4.89
2022-12-08T02:51:02.503Z,4.90
2022-12-08T02:52:23.243Z,4.95
2022-12-08T02:53:45.067Z,4.95
2022-12-08T02:55:14.312Z,4.96
2022-12-08T02:57:02.597Z,5.03
2022-12-08T02:58:29.615Z,5.03
2022-12-08T03:00:09.212Z,5.03
2022-12-08T03:01:43.631Z,5.03
2022-12-08T03:03:13.707Z,5.04
2022-12-08T03:04:37.414Z,4.97
2022-12-08T03:06:11.223Z,4.95
2022-12-08T03:07:40.686Z,4.98
2022-12-08T03:09:14.362Z,5.00
2022-12-08T03:10:46.500Z,5.02
2022-12-08T03:12:25.641Z,5.01
2022-12-08T03:13:53.201Z,4.98
2022-12-08T03:15:20.165Z,5.03
2022-12-08T03:16:44.117Z,5.08
2022-12-08T03:18:09.571Z,5.13
2022-12-08T03:19:38.175Z,5.12
2022-12-08T03:21:00.130Z,5.12
2022-12-08T03:22:23.687Z,5.10
2022-12-08T03:23:47.134Z,5.10
2022-12-08T03:25:12.716Z,5.10
2022-12-08T03:26:53.069Z,5.13
2022-12-08T03:28:14.174Z,5.14
2022-12-08T03:29:35.278Z,5.16
2022-12-08T03:31:00.140Z,5.20
2022-12-08T03:33:00.353Z,5.25
2022-12-08T03:34:23.987Z,5.28
2022-12-08T03:35:46.401Z,5.31
2022-12-08T03:37:07.714Z,5.34
2022-12-08T03:38:38.518Z,5.37
2022-12-08T03:39:59.488Z,5.39
2022-12-08T03:41:22.237Z,5.38
2022-12-08T03:42:43.437Z,5.40
2022-12-08T03:44:04.513Z,5.46
2022-12-08T03:45:26.156Z,5.40
2022-12-08T03:46:47.319Z,5.44
2022-12-08T03:48:08.630Z,5.42
2022-12-08T03:49:29.494Z,5.41
2022-12-08T03:50:50.759Z,5.45
2022-12-08T03:52:12.382Z,5.45
2022-12-08T03:53:33.843Z,5.48
2022-12-08T03:54:54.773Z,5.50
2022-12-08T03:56:34.309Z,5.48
2022-12-08T03:57:55.115Z,5.51
2022-12-08T03:59:16.362Z,5.53
2022-12-08T04:00:37.253Z,5.54
2022-12-08T04:01:58.648Z,5.51
2022-12-08T04:03:20.022Z,5.55
2022-12-08T04:04:40.923Z,5.57
2022-12-08T04:06:02.030Z,5.59
2022-12-08T04:07:23.271Z,5.60
2022-12-08T04:08:44.758Z,5.59
2022-12-08T04:10:06.497Z,5.61
2022-12-08T04:11:27.749Z,5.61
2022-12-08T04:12:48.877Z,5.64
2022-12-08T04:14:10.129Z,5.64
2022-12-08T04:15:31.173Z,5.67
2022-12-08T04:16:52.490Z,5.67
2022-12-08T04:18:14.250Z,5.68
2022-12-08T04:19:35.078Z,5.69
2022-12-08T04:20:56.293Z,5.65
2022-12-08T04:22:17.469Z,5.65
2022-12-08T04:23:38.990Z,5.68
2022-12-08T04:24:59.902Z,5.68
2022-12-08T04:26:21.045Z,5.70
2022-12-08T04:27:42.045Z,5.72
2022-12-08T04:29:03.296Z,5.73
2022-12-08T04:30:24.550Z,5.72
2022-12-08T04:31:46.118Z,5.71
2022-12-08T04:33:07.370Z,5.74
2022-12-08T04:34:28.693Z,5.71
2022-12-08T04:35:49.989Z,5.67
2022-12-08T04:37:11.282Z,5.69
2022-12-08T04:38:33.617Z,5.70
2022-12-08T04:39:54.753Z,5.72
2022-12-08T04:41:15.694Z,5.69
2022-12-08T04:42:37.398Z,5.71
2022-12-08T04:43:58.406Z,5.72
2022-12-08T04:45:19.416Z,5.71
2022-12-08T04:46:43.642Z,5.72
2022-12-08T04:48:05.242Z,5.72
2022-12-08T04:49:26.073Z,5.75
2022-12-08T04:50:47.199Z,5.73
2022-12-08T04:52:08.337Z,5.75
2022-12-08T04:53:29.675Z,5.75
2022-12-08T04:54:50.766Z,5.76
2022-12-08T04:56:13.552Z,5.76
2022-12-08T04:57:34.462Z,5.74
2022-12-08T04:58:55.662Z,5.75
2022-12-08T05:00:17.967Z,5.75
2022-12-08T05:01:38.953Z,5.71
2022-12-08T05:03:00.026Z,5.76
2022-12-08T05:04:21.061Z,5.74
2022-12-08T05:05:42.717Z,5.74
2022-12-08T05:07:04.021Z,5.74
2022-12-08T05:08:25.120Z,5.71
2022-12-08T05:09:46.166Z,5.77
2022-12-08T05:11:09.860Z,5.79
2022-12-08T05:12:31.076Z,5.78
2022-12-08T05:13:52.361Z,5.78
2022-12-08T05:15:13.621Z,5.80
2022-12-08T05:16:34.760Z,5.79
2022-12-08T05:17:56.177Z,5.77
2022-12-08T05:19:18.070Z,5.75
2022-12-08T05:20:39.251Z,5.75
2022-12-08T05:22:00.263Z,5.78
2022-12-08T05:23:21.387Z,5.77
2022-12-08T05:24:47.422Z,5.76
2022-12-08T05:26:08.880Z,5.70
2022-12-08T05:27:30.016Z,5.68
2022-12-08T05:28:51.159Z,5.77
2022-12-08T05:30:12.588Z,5.80
2022-12-08T05:31:33.715Z,5.81
2022-12-08T05:32:54.875Z,5.83
2022-12-08T05:34:15.915Z,5.80
2022-12-08T05:35:36.938Z,5.81
2022-12-08T05:36:58.095Z,5.86
2022-12-08T05:38:19.389Z,5.91
2022-12-08T05:39:40.829Z,5.95
2022-12-08T05:41:01.908Z,5.97
2022-12-08T05:42:24.931Z,5.95
2022-12-08T05:43:47.135Z,5.96
2022-12-08T05:45:08.980Z,5.90
2022-12-08T05:46:29.809Z,5.93
2022-12-08T05:47:53.493Z,5.97
2022-12-08T05:49:14.843Z,5.98
2022-12-08T05:50:36.118Z,5.99
2022-12-08T05:51:58.979Z,5.96
2022-12-08T05:53:20.613Z,5.96
2022-12-08T05:54:41.835Z,5.89
2022-12-08T05:56:03.336Z,5.88
2022-12-08T05:57:24.438Z,5.82
2022-12-08T05:58:45.278Z,5.74
2022-12-08T06:00:07.223Z,5.74
2022-12-08T06:01:32.968Z,5.73
2022-12-08T06:02:54.197Z,5.68
2022-12-08T06:04:15.500Z,5.67
2022-12-08T06:05:36.902Z,5.65
2022-12-08T06:06:58.090Z,5.63
2022-12-08T06:08:19.262Z,5.69
2022-12-08T06:09:40.342Z,5.72
2022-12-08T06:11:02.226Z,5.71
2022-12-08T06:12:23.109Z,5.73
2022-12-08T06:13:44.332Z,5.72
2022-12-08T06:15:06.622Z,5.67
2022-12-08T06:16:28.801Z,5.70
2022-12-08T06:17:49.846Z,5.72
2022-12-08T06:19:10.955Z,5.68
2022-12-08T06:20:32.506Z,5.68
2022-12-08T06:21:53.514Z,5.67
2022-12-08T06:23:14.758Z,5.72
2022-12-08T06:24:35.855Z,5.69
2022-12-08T06:26:05.582Z,5.63
2022-12-08T06:27:26.507Z,5.54
2022-12-08T06:28:49.367Z,5.57
2022-12-08T06:30:10.793Z,5.65
2022-12-08T06:31:31.991Z,5.71
2022-12-08T06:32:52.970Z,5.74
2022-12-08T06:34:14.258Z,5.78
2022-12-08T06:35:35.505Z,5.82
2022-12-08T06:36:56.323Z,5.85
2022-12-08T06:38:17.464Z,5.87
2022-12-08T06:39:38.465Z,5.84
2022-12-08T06:40:59.841Z,5.87
2022-12-08T06:42:39.868Z,5.88
2022-12-08T06:44:00.644Z,5.91
2022-12-08T06:45:21.548Z,5.86
2022-12-08T06:46:42.565Z,5.95
2022-12-08T06:48:03.927Z,5.96
2022-12-08T06:49:25.147Z,5.96
2022-12-08T06:50:46.240Z,5.99
2022-12-08T06:52:07.404Z,6.01
2022-12-08T06:53:28.676Z,6.07
2022-12-08T06:54:50.167Z,6.08
2022-12-08T06:56:11.840Z,6.14
2022-12-08T06:57:32.932Z,6.18
2022-12-08T06:58:54.107Z,6.21
2022-12-08T07:00:15.893Z,6.25
2022-12-08T07:01:36.946Z,6.22
2022-12-08T07:02:58.594Z,6.23
2022-12-08T07:04:19.668Z,6.25
2022-12-08T07:05:41.267Z,6.30
2022-12-08T07:07:02.444Z,6.30
2022-12-08T07:08:23.737Z,6.28
2022-12-08T07:09:44.814Z,6.32
2022-12-08T07:11:10.583Z,6.35
2022-12-08T07:12:31.749Z,6.31
2022-12-08T07:13:53.030Z,6.28
2022-12-08T07:15:14.243Z,6.34
2022-12-08T07:16:35.305Z,6.41
2022-12-08T07:18:00.085Z,6.46
2022-12-08T07:19:21.500Z,6.48
2022-12-08T07:20:42.537Z,6.47
2022-12-08T07:22:03.756Z,6.48
2022-12-08T07:23:24.796Z,6.53
2022-12-08T07:24:45.727Z,6.52
2022-12-08T07:26:08.427Z,6.56
2022-12-08T07:27:29.531Z,6.58
2022-12-08T07:28:50.678Z,6.65
2022-12-08T07:30:13.106Z,6.60
2022-12-08T07:31:34.207Z,6.64
2022-12-08T07:32:55.370Z,6.63
2022-12-08T07:34:16.435Z,6.66
2022-12-08T07:35:37.414Z,6.66
2022-12-08T07:36:58.647Z,6.69
2022-12-08T07:38:20.163Z,6.73
2022-12-08T07:39:41.408Z,6.77
2022-12-08T07:41:02.637Z,6.75
2022-12-08T07:42:23.929Z,6.76
2022-12-08T07:43:45.623Z,6.75
2022-12-08T07:45:07.628Z,6.74
2022-12-08T07:46:28.607Z,6.77
2022-12-08T07:47:49.761Z,6.82
2022-12-08T07:49:10.803Z,6.79
2022-12-08T07:50:31.970Z,6.77
2022-12-08T07:51:53.260Z,6.71
2022-12-08T07:53:14.744Z,6.73
2022-12-08T07:54:36.006Z,6.80
2022-12-08T07:55:57.817Z,6.73
2022-12-08T07:57:19.036Z,6.64
2022-12-08T07:58:41.031Z,6.71
2022-12-08T08:00:02.878Z,6.74
2022-12-08T08:01:34.489Z,6.76
2022-12-08T08:02:55.424Z,6.79
2022-12-08T08:04:16.871Z,6.84
2022-12-08T08:05:38.204Z,6.79
2022-12-08T08:06:59.595Z,6.86
2022-12-08T08:08:21.068Z,6.74
2022-12-08T08:09:42.320Z,6.72
2022-12-08T08:11:15.807Z,6.76
2022-12-08T08:12:40.527Z,6.78
2022-12-08T08:14:01.771Z,6.79
2022-12-08T08:15:23.002Z,6.74
2022-12-08T08:16:47.523Z,6.85
2022-12-08T08:18:08.829Z,6.83
2022-12-08T08:19:30.247Z,6.78
2022-12-08T08:20:51.607Z,6.76
2022-12-08T08:22:12.802Z,6.79
2022-12-08T08:23:34.896Z,6.76
2022-12-08T08:24:55.884Z,6.81
2022-12-08T08:26:17.286Z,6.81
2022-12-08T08:27:38.386Z,6.77
2022-12-08T08:28:59.566Z,6.86
2022-12-08T08:30:21.384Z,6.90
2022-12-08T08:31:42.570Z,6.89
2022-12-08T08:33:03.827Z,6.85
2022-12-08T08:34:24.800Z,6.88
2022-12-08T08:35:46.034Z,6.87
2022-12-08T08:37:07.345Z,6.84
2022-12-08T08:38:29.293Z,6.76
2022-12-08T08:39:51.625Z,6.89
2022-12-08T08:41:12.696Z,6.96
2022-12-08T08:42:34.774Z,7.06
2022-12-08T08:43:55.572Z,7.08
2022-12-08T08:45:16.819Z,7.12
2022-12-08T08:46:37.964Z,7.20
2022-12-08T08:47:59.662Z,7.18
2022-12-08T08:49:20.843Z,7.12
2022-12-08T08:50:42.022Z,7.07
2022-12-08T08:52:04.671Z,7.08
2022-12-08T08:53:26.108Z,7.03
2022-12-08T08:54:47.166Z,7.02
2022-12-08T08:56:19.414Z,7.12
2022-12-08T08:57:40.604Z,7.13
2022-12-08T08:59:03.106Z,7.11
2022-12-08T09:00:24.069Z,7.15
2022-12-08T09:01:46.435Z,7.25
2022-12-08T09:03:07.725Z,7.28
2022-12-08T09:04:29.889Z,7.29
2022-12-08T09:05:51.617Z,7.28
2022-12-08T09:07:13.605Z,7.30
2022-12-08T09:08:34.720Z,7.35
2022-12-08T09:10:01.617Z,7.39
2022-12-08T09:11:23.841Z,7.45
2022-12-08T09:12:44.882Z,7.42
2022-12-08T09:14:07.967Z,7.54
2022-12-08T09:15:30.315Z,7.58
2022-12-08T09:16:52.084Z,7.57
2022-12-08T09:18:13.178Z,7.59
2022-12-08T09:19:34.654Z,7.56
2022-12-08T09:20:55.852Z,7.64
2022-12-08T09:22:16.885Z,7.75
2022-12-08T09:23:38.080Z,7.92
2022-12-08T09:24:58.923Z,8.07
2022-12-08T09:26:24.047Z,8.17
2022-12-08T09:27:44.901Z,8.27
2022-12-08T09:29:06.024Z,8.29
2022-12-08T09:30:27.137Z,8.27
2022-12-08T09:31:48.026Z,8.20
2022-12-08T09:33:09.143Z,8.29
2022-12-08T09:34:31.323Z,8.30
2022-12-08T09:35:52.458Z,8.29
2022-12-08T09:37:14.267Z,8.33
2022-12-08T09:38:35.591Z,8.32
2022-12-08T09:39:57.918Z,8.32
2022-12-08T09:41:40.631Z,8.34
2022-12-08T09:43:20.075Z,8.31
2022-12-08T09:44:57.282Z,8.31
2022-12-08T09:46:19.517Z,8.30
2022-12-08T09:47:58.011Z,8.37
2022-12-08T09:49:25.165Z,8.43
2022-12-08T09:50:57.111Z,8.48
2022-12-08T09:52:33.632Z,8.51
2022-12-08T09:54:24.247Z,8.57
2022-12-08T09:55:54.651Z,8.57
2022-12-08T09:57:19.495Z,8.65
2022-12-08T09:58:57.132Z,8.71
2022-12-08T10:00:18.338Z,8.77
2022-12-08T10:01:42.120Z,8.78
2022-12-08T10:03:03.483Z,8.77
2022-12-08T10:04:34.905Z,8.80
2022-12-08T10:06:21.819Z,8.85
2022-12-08T10:07:49.416Z,8.96
2022-12-08T10:09:21.193Z,9.05
2022-12-08T10:10:47.355Z,9.01
2022-12-08T10:12:32.078Z,9.01
2022-12-08T10:14:10.289Z,9.02
2022-12-08T10:15:31.136Z,9.03
2022-12-08T10:16:58.583Z,9.03
2022-12-08T10:18:30.849Z,9.04
2022-12-08T10:20:12.399Z,9.09
2022-12-08T10:21:33.840Z,8.99
2022-12-08T10:23:07.739Z,8.94
2022-12-08T10:24:41.171Z,8.76
2022-12-08T10:26:15.366Z,8.98
2022-12-08T10:27:37.435Z,9.03
2022-12-08T10:29:02.904Z,9.07
2022-12-08T10:30:24.279Z,9.07
2022-12-08T10:31:45.925Z,9.01
2022-12-08T10:33:15.530Z,8.77
2022-12-08T10:35:05.281Z,8.67
2022-12-08T10:36:45.002Z,8.51
2022-12-08T10:38:06.567Z,8.47
2022-12-08T10:39:34.384Z,8.38
2022-12-08T10:41:09.568Z,8.37
2022-12-08T10:42:38.211Z,8.50
2022-12-08T10:44:01.775Z,8.62
2022-12-08T10:45:23.273Z,8.67
2022-12-08T10:46:44.382Z,8.68
2022-12-08T10:48:17.104Z,8.57
2022-12-08T10:49:38.728Z,8.49
2022-12-08T10:51:00.659Z,8.47
2022-12-08T10:52:25.365Z,8.36
2022-12-08T10:53:47.239Z,8.42
2022-12-08T10:55:17.937Z,8.41
2022-12-08T10:56:39.173Z,8.42
2022-12-08T10:58:00.484Z,8.41
2022-12-08T10:59:21.721Z,8.42
2022-12-08T11:00:43.054Z,8.46
2022-12-08T11:02:09.009Z,8.53
2022-12-08T11:03:39.702Z,8.54
2022-12-08T11:05:00.692Z,8.57
2022-12-08T11:06:30.357Z,8.59
2022-12-08T11:07:53.965Z,8.61
2022-12-08T11:09:17.984Z,8.63
2022-12-08T11:10:44.974Z,8.61
2022-12-08T11:12:15.333Z,8.58
2022-12-08T11:13:41.573Z,8.60
2022-12-08T11:15:05.299Z,8.63
2022-12-08T11:16:27.583Z,8.59
2022-12-08T11:18:01.188Z,8.62
2022-12-08T11:19:27.605Z,8.59
2022-12-08T11:21:00.297Z,8.67
2022-12-08T11:22:42.615Z,8.67
2022-12-08T11:24:16.110Z,8.70
2022-12-08T11:25:37.353Z,8.56
2022-12-08T11:27:02.665Z,8.60
2022-12-08T11:28:25.070Z,8.67
2022-12-08T11:29:46.362Z,8.53
2022-12-08T11:31:33.726Z,8.60
2022-12-08T11:33:17.902Z,8.59
2022-12-08T11:34:48.030Z,8.59
2022-12-08T11:36:14.538Z,8.50
2022-12-08T11:37:41.565Z,8.56
2022-12-08T11:39:04.678Z,8.57
2022-12-08T11:40:32.777Z,8.62
2022-12-08T11:41:56.350Z,8.64
2022-12-08T11:43:28.468Z,8.63
2022-12-08T11:44:53.233Z,8.66
2022-12-08T11:46:46.703Z,8.67
2022-12-08T11:48:23.979Z,8.68
2022-12-08T11:51:13.522Z,8.69
2022-12-08T11:52:45.229Z,8.73
2022-12-08T11:54:24.146Z,8.75
2022-12-08T11:55:58.774Z,8.79
2022-12-08T11:57:23.209Z,8.65
2022-12-08T11:58:50.558Z,8.73
2022-12-08T12:00:15.181Z,8.76
2022-12-08T12:01:42.213Z,8.80
2022-12-08T12:03:32.443Z,8.81
2022-12-08T12:05:10.082Z,8.78
2022-12-08T12:06:54.574Z,8.85
2022-12-08T12:08:43.764Z,8.86
2022-12-08T12:10:23.215Z,8.88
2022-12-08T12:12:09.123Z,8.93
2022-12-08T12:13:39.348Z,8.88
2022-12-08T12:15:15.395Z,8.88
2022-12-08T12:17:06.277Z,8.85
2022-12-08T12:18:46.363Z,8.86
2022-12-08T12:20:15.294Z,8.88
2022-12-08T12:21:57.239Z,8.93
2022-12-08T12:23:36.406Z,8.96
2022-12-08T12:24:57.529Z,8.97
2022-12-08T12:26:22.556Z,8.96
2022-12-08T12:27:45.565Z,8.94
2022-12-08T12:29:26.095Z,8.93
2022-12-08T12:31:06.437Z,8.89
2022-12-08T12:32:43.123Z,8.85
2022-12-08T12:34:15.473Z,8.82
2022-12-08T12:35:43.157Z,8.84
2022-12-08T12:37:10.451Z,8.83
2022-12-08T12:38:59.193Z,8.86
2022-12-08T12:40:24.157Z,8.83
2022-12-08T12:41:52.118Z,8.83
2022-12-08T12:43:24.374Z,8.83
2022-12-08T12:44:45.412Z,8.84
2022-12-08T12:46:43.599Z,8.82
2022-12-08T12:48:04.411Z,8.79
2022-12-08T12:49:40.942Z,8.82
2022-12-08T12:51:39.876Z,8.82
2022-12-08T12:53:02.905Z,8.81
2022-12-08T12:54:25.913Z,8.80
2022-12-08T12:56:03.964Z,8.80
2022-12-08T12:57:39.854Z,8.82
2022-12-08T12:59:29.436Z,8.87
2022-12-08T13:00:50.396Z,8.86
2022-12-08T13:02:34.145Z,8.81
2022-12-08T13:04:09.777Z,8.82
2022-12-08T13:05:48.973Z,8.80
2022-12-08T13:07:21.515Z,8.77
2022-12-08T13:08:52.629Z,8.74
2022-12-08T13:10:25.948Z,8.72
2022-12-08T13:11:51.882Z,8.70
2022-12-08T13:13:12.825Z,8.72
2022-12-08T13:14:46.777Z,8.74
2022-12-08T13:16:18.575Z,8.72
2022-12-08T13:17:45.753Z,8.75
2022-12-08T13:19:16.049Z,8.70
2022-12-08T13:20:46.013Z,8.73
2022-12-08T13:22:45.060Z,8.72
2022-12-08T13:24:17.899Z,8.68
2022-12-08T13:25:44.945Z,8.70
2022-12-08T13:27:05.683Z,8.69
2022-12-08T13:28:31.285Z,8.68
2022-12-08T13:30:31.235Z,8.71
2022-12-08T13:31:54.000Z,8.69
2022-12-08T13:33:25.783Z,8.68
2022-12-08T13:34:55.490Z,8.56
2022-12-08T13:36:26.123Z,8.58
2022-12-08T13:37:54.927Z,8.53
2022-12-08T13:39:26.753Z,8.50
2022-12-08T13:41:08.797Z,8.26
2022-12-08T13:42:51.085Z,8.29
2022-12-08T13:45:18.659Z,8.29
2022-12-08T13:46:57.940Z,8.27
2022-12-08T13:48:23.377Z,8.26
2022-12-08T13:51:10.573Z,8.20
2022-12-08T13:57:27.492Z,8.20
2022-12-08T13:58:48.683Z,8.19
2022-12-08T14:00:18.399Z,8.21
2022-12-08T14:01:44.866Z,8.18
2022-12-08T14:03:05.984Z,8.02
2022-12-08T14:04:54.288Z,7.96
2022-12-08T14:06:25.019Z,7.88
2022-12-08T14:07:48.951Z,7.83
2022-12-08T14:09:27.250Z,7.80
2022-12-08T14:10:57.641Z,7.72
2022-12-08T14:12:25.280Z,7.73
2022-12-08T14:13:46.076Z,7.71
2022-12-08T14:15:08.124Z,7.75
2022-12-08T14:16:36.095Z,7.83
2022-12-08T14:17:57.950Z,7.92
2022-12-08T14:19:28.004Z,7.94
2022-12-08T14:21:22.402Z,8.01
2022-12-08T14:22:44.417Z,8.03
2022-12-08T14:24:05.874Z,8.03
2022-12-08T14:25:30.182Z,8.07
2022-12-08T14:26:54.224Z,8.06
2022-12-08T14:28:15.105Z,8.07
2022-12-08T14:30:09.945Z,8.09
2022-12-08T14:31:31.171Z,8.08
2022-12-08T14:32:58.795Z,8.07
2022-12-08T14:34:19.623Z,8.08
2022-12-08T14:35:40.836Z,8.11
2022-12-08T14:37:02.030Z,8.14
2022-12-08T14:38:25.850Z,8.13
2022-12-08T14:39:47.329Z,8.12
2022-12-08T14:41:11.974Z,8.10
2022-12-08T14:42:44.126Z,8.14
2022-12-08T14:44:23.325Z,8.15
2022-12-08T14:45:44.220Z,8.15
2022-12-08T14:47:08.453Z,8.16
2022-12-08T14:48:38.807Z,8.17
2022-12-08T14:50:01.141Z,8.18
2022-12-08T14:51:22.081Z,8.15
2022-12-08T14:52:44.846Z,8.13
2022-12-08T14:54:09.933Z,8.15
2022-12-08T14:55:36.457Z,8.19
2022-12-08T14:56:58.241Z,8.18
2022-12-08T14:58:29.515Z,8.19
2022-12-08T14:59:50.809Z,8.19
2022-12-08T15:01:17.095Z,8.20
2022-12-08T15:02:46.330Z,8.23
2022-12-08T15:04:14.027Z,8.25
2022-12-08T15:05:35.196Z,8.24
2022-12-08T15:07:01.140Z,8.22
2022-12-08T15:08:22.693Z,8.19
2022-12-08T15:09:47.263Z,8.21
2022-12-08T15:11:24.770Z,8.21
2022-12-08T15:13:08.861Z,8.17
2022-12-08T15:14:33.593Z,8.19
2022-12-08T15:15:57.782Z,8.18
2022-12-08T15:17:34.468Z,8.17
2022-12-08T15:19:05.937Z,8.14
2022-12-08T15:20:31.665Z,8.13
2022-12-08T15:21:57.075Z,8.09
2022-12-08T15:23:27.445Z,8.13
2022-12-08T15:24:48.896Z,8.15
2022-12-08T15:26:21.924Z,8.15
2022-12-08T15:27:50.275Z,8.15
2022-12-08T15:29:20.898Z,8.15
2022-12-08T15:30:42.169Z,8.14
2022-12-08T15:32:09.720Z,8.15
2022-12-08T15:33:30.699Z,8.18
2022-12-08T15:34:52.185Z,8.18
2022-12-08T15:36:13.740Z,8.18
2022-12-08T15:37:34.713Z,8.15
2022-12-08T15:38:55.675Z,8.16
2022-12-08T15:40:22.907Z,8.19
2022-12-08T15:41:43.860Z,8.20
2022-12-08T15:43:04.783Z,8.19
2022-12-08T15:44:26.377Z,8.19
2022-12-08T15:45:58.509Z,8.22
2022-12-08T15:47:23.864Z,8.20
2022-12-08T15:48:45.166Z,8.28
2022-12-08T15:50:07.558Z,8.31
2022-12-08T15:51:30.991Z,8.32
2022-12-08T15:52:52.181Z,8.30
2022-12-08T15:54:13.575Z,8.31
2022-12-08T15:55:38.744Z,8.31
2022-12-08T15:57:18.983Z,8.37
2022-12-08T15:58:57.927Z,8.38
2022-12-08T16:00:50.537Z,8.34
2022-12-08T16:02:02.917Z,8.37
2022-12-08T16:05:40.970Z,8.37
2022-12-08T16:08:51.813Z,8.43
2022-12-08T16:10:19.115Z,8.28
2022-12-08T16:12:08.306Z,8.18
2022-12-08T16:13:57.653Z,8.23
2022-12-08T16:17:02.381Z,8.12
2022-12-08T16:18:28.016Z,8.17
2022-12-08T16:19:49.499Z,8.16
2022-12-08T16:21:34.285Z,8.13
2022-12-08T16:22:59.657Z,8.11
2022-12-08T16:24:34.443Z,8.09
2022-12-08T16:26:20.162Z,8.06
2022-12-08T16:29:21.147Z,8.12
2022-12-08T16:30:42.162Z,8.11
2022-12-08T16:32:03.041Z,8.15
2022-12-08T16:33:24.511Z,8.15
2022-12-08T16:34:45.474Z,8.14
2022-12-08T16:36:06.974Z,8.12
2022-12-08T16:37:28.821Z,8.12
2022-12-08T16:38:50.244Z,8.13
2022-12-08T16:40:12.584Z,8.13
2022-12-08T16:41:52.193Z,8.13
2022-12-08T16:43:13.081Z,8.09
2022-12-08T16:44:34.093Z,8.05
2022-12-08T16:45:55.268Z,8.05
2022-12-08T16:47:16.487Z,8.02
2022-12-08T16:48:37.965Z,8.01
2022-12-08T16:49:59.474Z,7.97
2022-12-08T16:51:26.438Z,7.93
2022-12-08T16:52:49.044Z,7.95
2022-12-08T16:54:09.787Z,7.87
2022-12-08T16:55:31.364Z,7.84
2022-12-08T16:56:52.622Z,7.85
2022-12-08T16:58:14.592Z,7.87
2022-12-08T16:59:35.488Z,7.90
2022-12-08T17:01:02.354Z,7.89
2022-12-08T17:02:23.812Z,7.91
2022-12-08T17:04:01.414Z,7.94
2022-12-08T17:05:27.328Z,7.94
2022-12-08T17:06:50.960Z,7.95
2022-12-08T17:08:13.327Z,7.99
2022-12-08T17:09:34.517Z,8.01
2022-12-08T17:11:07.438Z,8.02
2022-12-08T17:12:28.962Z,8.03
2022-12-08T17:13:49.855Z,8.05
2022-12-08T17:15:15.082Z,8.06
2022-12-08T17:16:36.059Z,8.06
2022-12-08T17:17:57.229Z,8.08
2022-12-08T17:19:19.009Z,8.09
2022-12-08T17:20:40.448Z,8.10
2022-12-08T17:22:02.328Z,8.12
2022-12-08T17:23:26.430Z,8.10
2022-12-08T17:24:47.650Z,8.07
2022-12-08T17:26:09.852Z,8.05
2022-12-08T17:27:31.246Z,8.04
2022-12-08T17:29:00.443Z,8.06
2022-12-08T17:30:21.942Z,8.02
2022-12-08T17:31:42.994Z,8.04
2022-12-08T17:33:04.516Z,8.04
2022-12-08T17:34:31.595Z,8.04
2022-12-08T17:35:54.351Z,8.02
2022-12-08T17:37:16.082Z,8.02
2022-12-08T17:38:37.956Z,8.01
2022-12-08T17:39:59.268Z,7.99
2022-12-08T17:41:20.045Z,8.03
2022-12-08T17:42:42.457Z,8.02
2022-12-08T17:44:03.536Z,8.01
2022-12-08T17:45:24.535Z,8.01
2022-12-08T17:46:52.103Z,8.03
2022-12-08T17:48:15.029Z,8.04
2022-12-08T17:49:38.898Z,8.04
2022-12-08T17:51:00.250Z,8.07
2022-12-08T17:52:21.030Z,8.08
2022-12-08T17:53:42.677Z,8.11
2022-12-08T17:55:04.194Z,8.07
2022-12-08T17:56:25.078Z,8.06
2022-12-08T17:57:46.127Z,8.08
2022-12-08T17:59:07.423Z,8.07
2022-12-08T18:00:29.079Z,8.00
2022-12-08T18:01:52.555Z,8.01
2022-12-08T18:03:13.920Z,8.02
2022-12-08T18:04:34.819Z,8.01
2022-12-08T18:05:56.109Z,7.93
2022-12-08T18:07:17.462Z,7.96
2022-12-08T18:08:39.715Z,7.92
2022-12-08T18:10:00.882Z,7.95
2022-12-08T18:11:22.079Z,7.92
2022-12-08T18:12:43.281Z,7.91
2022-12-08T18:14:10.195Z,7.89
2022-12-08T18:15:37.474Z,7.87
2022-12-08T18:17:00.363Z,7.87
2022-12-08T18:18:22.735Z,7.85
2022-12-08T18:19:44.151Z,7.89
2022-12-08T18:21:06.020Z,7.88
2022-12-08T18:22:27.219Z,7.85
2022-12-08T18:23:48.099Z,7.87
2022-12-08T18:25:10.889Z,7.82
2022-12-08T18:26:32.421Z,7.73
2022-12-08T18:27:53.313Z,7.74
2022-12-08T18:29:14.274Z,7.73
2022-12-08T18:30:35.152Z,7.75
2022-12-08T18:31:56.469Z,7.76
2022-12-08T18:33:17.800Z,7.79
2022-12-08T18:34:38.933Z,7.76
2022-12-08T18:35:59.969Z,7.77
2022-12-08T18:37:21.021Z,7.76
2022-12-08T18:38:43.154Z,7.77
2022-12-08T18:40:04.943Z,7.76
2022-12-08T18:41:30.992Z,7.78
2022-12-08T18:42:55.157Z,7.80
2022-12-08T18:44:16.069Z,7.82
2022-12-08T18:45:39.992Z,7.82
2022-12-08T18:47:02.491Z,7.85
2022-12-08T18:48:23.343Z,7.88
2022-12-08T18:49:44.286Z,7.88
2022-12-08T18:51:13.341Z,7.91
2022-12-08T18:52:35.180Z,7.89
2022-12-08T18:53:58.328Z,7.91
2022-12-08T18:55:19.320Z,7.87
2022-12-08T18:56:40.813Z,7.88
2022-12-08T18:58:01.793Z,7.89
2022-12-08T18:59:23.057Z,7.88
2022-12-08T19:00:43.924Z,7.81
2022-12-08T19:02:06.278Z,7.82
2022-12-08T19:03:27.659Z,7.82
2022-12-08T19:04:48.757Z,7.82
2022-12-08T19:06:09.771Z,7.80
2022-12-08T19:07:31.177Z,7.83
2022-12-08T19:08:54.668Z,7.85
2022-12-08T19:10:15.859Z,7.85
2022-12-08T19:11:36.760Z,7.87
2022-12-08T19:12:57.955Z,7.90
2022-12-08T19:14:24.141Z,7.92
2022-12-08T19:15:49.056Z,7.90
2022-12-08T19:17:10.178Z,7.87